Terminal Aerodrome Forecast
Issued by NWS Bismarck, ND

Home | Current Version | Previous Version | Text Only | Print | Product List | Glossary Off
Versions: 1 2 3 4 5 6 7 8 9 10 11 12 13 14 15 16 17 18 19 20 21

000
FTUS43 KBIS 220810 AAA
TAFISN
TAF AMD
KISN 220810Z 2208/2306 18004KT P6SM SCT250
     FM220900 17005KT P6SM BKN080
     FM221100 20007KT P6SM SCT080 BKN110 WS020/27035KT
     FM221500 25008KT P6SM SCT140 WS020/28045KT
     FM221700 30014KT P6SM SKC
     FM230100 34003KT P6SM FEW025 FEW300=

USA.gov is the U.S. government's official web portal to all federal, state and local government web resources and services.